Time;durP1;ratioP1;P1;durP2;ratioP2;P2;SDS_P1;SDS_P2;PMS_P1;PMS_P2;Temp;Humidity;BMP_temperature;BMP_pressure;BME280_temperature;BME280_humidity;BME280_pressure;Samples;Min_cycle;Max_cycle;Signal;HPM_P1;HPM_P2
2021/12/27 00:00:10;;;;;;;2.47;1.58;;;13.10;99.90;;;;;;6180484;23;20420;-73
2021/12/27 00:02:37;;;;;;;2.38;1.52;;;13.00;99.90;;;;;;6210854;23;20036;-72
2021/12/27 00:05:04;;;;;;;2.15;1.20;;;13.10;99.90;;;;;;6181045;23;20020;-75
2021/12/27 00:07:31;;;;;;;2.85;1.75;;;13.10;99.90;;;;;;6210237;23;20027;-73
2021/12/27 00:09:59;;;;;;;2.00;1.35;;;13.20;99.90;;;;;;6200235;23;20017;-72
2021/12/27 00:12:25;;;;;;;2.17;1.40;;;13.10;99.90;;;;;;6152038;23;20022;-71
2021/12/27 00:14:52;;;;;;;2.60;1.48;;;13.20;99.90;;;;;;6204207;23;20024;-72
2021/12/27 00:17:19;;;;;;;2.10;1.30;;;13.30;99.90;;;;;;6178593;23;20334;-72
2021/12/27 00:19:47;;;;;;;2.00;1.30;;;13.30;99.90;;;;;;6206800;23;20104;-72
2021/12/27 00:22:13;;;;;;;2.65;1.40;;;13.40;99.90;;;;;;6178575;23;20493;-72
2021/12/27 00:24:39;;;;;;;3.10;1.30;;;13.40;99.90;;;;;;6157881;23;20032;-71
2021/12/27 00:27:06;;;;;;;2.28;1.33;;;13.40;99.90;;;;;;6206104;23;20020;-73
2021/12/27 00:29:33;;;;;;;2.45;1.40;;;13.40;99.90;;;;;;6180859;23;20016;-72
2021/12/27 00:32:00;;;;;;;2.28;1.30;;;13.40;99.90;;;;;;6207223;23;20366;-75
2021/12/27 00:34:26;;;;;;;1.75;1.30;;;13.50;99.90;;;;;;6171274;23;20038;-73
2021/12/27 00:36:53;;;;;;;2.28;1.33;;;13.50;99.90;;;;;;6208100;23;20025;-73
2021/12/27 00:39:20;;;;;;;2.22;1.15;;;13.60;99.90;;;;;;6206183;23;20531;-71
2021/12/27 00:41:47;;;;;;;1.85;1.30;;;13.70;99.90;;;;;;6209855;23;20032;-74
2021/12/27 00:44:14;;;;;;;2.28;1.30;;;13.60;99.90;;;;;;6180546;23;20016;-75
2021/12/27 00:46:40;;;;;;;4.53;1.48;;;13.70;99.90;;;;;;6209767;23;20035;-72
2021/12/27 00:49:06;;;;;;;1.75;0.90;;;13.70;99.90;;;;;;6203602;23;20776;-72
2021/12/27 00:51:32;;;;;;;1.30;1.05;;;13.70;99.90;;;;;;6177334;23;20040;-73
2021/12/27 00:53:58;;;;;;;2.15;0.98;;;13.70;99.90;;;;;;6206472;23;20020;-72
2021/12/27 00:56:24;;;;;;;2.03;1.00;;;13.80;99.90;;;;;;6207744;23;20016;-73
2021/12/27 00:58:50;;;;;;;1.45;1.08;;;13.90;99.90;;;;;;6208213;23;20062;-71
2021/12/27 01:01:16;;;;;;;0.80;0.80;;;14.00;99.90;;;;;;6207627;23;20043;-73
2021/12/27 01:03:42;;;;;;;2.72;1.00;;;13.90;99.90;;;;;;6182120;23;20031;-72
2021/12/27 01:06:09;;;;;;;2.10;1.10;;;13.90;99.90;;;;;;6180398;23;20116;-71
2021/12/27 01:08:36;;;;;;;2.45;1.17;;;13.90;99.90;;;;;;6182708;23;20019;-73
2021/12/27 01:11:24;;;;;;;2.60;1.08;;;13.90;99.90;;;;;;6184829;23;20017;-72
2021/12/27 01:16:52;;;;;;;2.33;1.30;;;13.80;99.90;;;;;;6138232;23;20033;-72
2021/12/27 01:19:18;;;;;;;1.45;1.15;;;13.80;99.90;;;;;;6207726;23;20340;-73
2021/12/27 01:21:44;;;;;;;1.95;1.17;;;13.70;99.90;;;;;;6208735;23;20023;-71
2021/12/27 01:24:10;;;;;;;3.25;1.23;;;13.80;99.90;;;;;;6180764;23;20040;-73
2021/12/27 01:26:36;;;;;;;1.00;0.75;;;13.80;99.90;;;;;;6177393;23;20266;-72
2021/12/27 01:29:07;;;;;;;1.05;0.95;;;13.80;99.90;;;;;;6207513;23;20027;-72
2021/12/27 01:31:34;;;;;;;2.05;1.10;;;13.80;99.90;;;;;;6165240;23;20019;-71
2021/12/27 01:34:01;;;;;;;1.42;0.90;;;13.70;99.90;;;;;;6209154;23;20032;-72
2021/12/27 01:36:32;;;;;;;1.38;1.00;;;13.70;99.90;;;;;;6180168;23;20051;-72
2021/12/27 01:39:00;;;;;;;1.98;1.08;;;13.80;99.90;;;;;;6181065;23;20057;-72
2021/12/27 01:41:26;;;;;;;1.40;0.93;;;13.80;99.90;;;;;;6207769;23;20020;-72
2021/12/27 01:43:53;;;;;;;1.30;1.00;;;13.70;99.90;;;;;;6166446;23;20185;-71
2021/12/27 01:46:23;;;;;;;1.20;0.88;;;13.70;99.90;;;;;;6207455;23;20047;-72
2021/12/27 01:48:55;;;;;;;1.60;1.00;;;13.70;99.90;;;;;;6181362;23;20013;-70
2021/12/27 01:51:30;;;;;;;5.07;0.98;;;13.70;99.90;;;;;;6192997;23;20060;-71
2021/12/27 01:53:57;;;;;;;1.60;0.85;;;13.80;99.90;;;;;;6181424;23;20503;-72
2021/12/27 01:56:25;;;;;;;1.70;1.13;;;13.90;99.90;;;;;;6166225;23;20028;-72
2021/12/27 01:58:53;;;;;;;1.60;0.95;;;13.80;99.90;;;;;;6207481;23;20024;-72
2021/12/27 02:01:19;;;;;;;1.77;1.15;;;13.80;99.90;;;;;;6179852;23;20032;-72
2021/12/27 02:03:45;;;;;;;1.30;0.93;;;13.80;99.90;;;;;;6180886;23;20017;-73
2021/12/27 02:06:13;;;;;;;1.88;1.13;;;13.80;99.90;;;;;;6178974;23;20023;-71
2021/12/27 02:08:41;;;;;;;1.50;1.10;;;13.80;99.90;;;;;;6208528;23;20023;-72
2021/12/27 02:11:09;;;;;;;1.27;0.82;;;13.70;99.90;;;;;;6205299;23;20071;-71
2021/12/27 02:13:42;;;;;;;1.40;1.05;;;13.70;99.90;;;;;;6180478;23;20364;-72
2021/12/27 02:16:12;;;;;;;1.25;0.85;;;13.70;99.90;;;;;;6190783;23;20024;-71
2021/12/27 02:18:39;;;;;;;1.05;0.88;;;13.70;99.90;;;;;;6180797;23;20044;-72
2021/12/27 02:21:05;;;;;;;1.42;0.77;;;13.70;99.90;;;;;;6179160;23;20012;-72
2021/12/27 02:23:31;;;;;;;2.65;0.90;;;13.70;99.90;;;;;;6180440;23;20089;-72
2021/12/27 02:25:58;;;;;;;1.13;0.70;;;13.80;99.90;;;;;;6207187;23;20024;-72
2021/12/27 02:28:24;;;;;;;1.02;0.75;;;13.80;99.90;;;;;;6206833;23;20028;-72
2021/12/27 02:30:52;;;;;;;0.80;0.77;;;13.90;99.90;;;;;;6207155;23;20416;-72
2021/12/27 02:33:18;;;;;;;1.58;0.65;;;13.80;99.90;;;;;;6179009;23;20020;-72
2021/12/27 02:35:50;;;;;;;1.67;0.77;;;13.80;99.90;;;;;;6209067;23;20377;-71
2021/12/27 02:38:23;;;;;;;3.20;0.85;;;13.80;99.90;;;;;;6205725;23;20116;-71
2021/12/27 02:40:51;;;;;;;1.35;0.80;;;13.90;99.90;;;;;;6180625;23;20087;-71
2021/12/27 02:43:21;;;;;;;1.05;0.75;;;13.90;99.90;;;;;;6206358;23;20084;-72
2021/12/27 02:45:55;;;;;;;3.83;0.98;;;13.80;99.90;;;;;;6207059;23;20332;-72
2021/12/27 02:48:27;;;;;;;1.15;0.90;;;13.70;99.90;;;;;;6205469;23;20071;-71
2021/12/27 02:50:54;;;;;;;3.97;1.37;;;13.70;99.90;;;;;;6208141;23;20054;-72
2021/12/27 02:53:21;;;;;;;2.03;1.23;;;13.60;99.90;;;;;;6205098;23;20437;-72
2021/12/27 02:55:51;;;;;;;2.08;1.17;;;13.60;99.90;;;;;;6206522;23;20055;-72
2021/12/27 02:58:18;;;;;;;0.95;0.90;;;13.50;99.90;;;;;;6179815;23;20017;-71
2021/12/27 03:00:48;;;;;;;1.40;1.05;;;13.40;99.90;;;;;;6207819;23;20023;-71
2021/12/27 03:03:14;;;;;;;3.55;1.20;;;13.30;99.90;;;;;;6206716;23;20443;-71
2021/12/27 03:05:43;;;;;;;1.83;1.02;;;13.30;99.90;;;;;;6207640;23;20059;-71
2021/12/27 03:08:14;;;;;;;1.42;1.08;;;13.30;99.90;;;;;;6178590;23;20064;-71
2021/12/27 03:10:43;;;;;;;2.13;0.90;;;13.30;99.90;;;;;;6180715;23;20112;-71
2021/12/27 03:13:15;;;;;;;1.30;1.00;;;13.30;99.90;;;;;;6179512;23;20021;-72
2021/12/27 03:15:42;;;;;;;1.13;0.80;;;13.30;99.90;;;;;;6207318;23;20013;-72
2021/12/27 03:18:08;;;;;;;0.77;0.73;;;13.40;99.90;;;;;;6179528;23;20070;-71
2021/12/27 03:20:34;;;;;;;1.10;0.90;;;13.40;99.90;;;;;;6208418;23;20776;-72
2021/12/27 03:23:01;;;;;;;2.33;1.13;;;13.50;99.90;;;;;;6179177;23;20048;-74
2021/12/27 03:25:29;;;;;;;1.30;0.95;;;13.50;99.90;;;;;;6180027;23;20019;-71
2021/12/27 03:27:55;;;;;;;0.90;0.68;;;13.60;99.90;;;;;;6182347;23;20027;-72
2021/12/27 03:30:26;;;;;;;2.35;0.90;;;13.60;99.90;;;;;;6206801;23;20058;-72
2021/12/27 03:32:52;;;;;;;1.20;0.80;;;13.70;99.90;;;;;;6192372;23;20048;-72
2021/12/27 03:35:25;;;;;;;0.90;0.70;;;13.60;99.90;;;;;;6205850;23;20445;-72
2021/12/27 03:37:55;;;;;;;1.05;0.50;;;13.60;99.90;;;;;;6180125;23;20024;-72
2021/12/27 03:40:22;;;;;;;1.00;0.80;;;13.80;99.90;;;;;;6207279;23;20096;-72
2021/12/27 03:42:50;;;;;;;1.02;0.60;;;13.80;99.90;;;;;;6179648;23;20013;-71
2021/12/27 03:45:40;;;;;;;0.98;0.70;;;13.80;99.90;;;;;;6179430;23;20033;-72
2021/12/27 03:48:08;;;;;;;1.02;0.60;;;13.80;99.90;;;;;;6189312;23;20106;-71
2021/12/27 03:50:35;;;;;;;0.98;0.63;;;13.70;99.90;;;;;;6181503;23;20314;-71
2021/12/27 03:53:01;;;;;;;0.95;0.60;;;13.80;99.90;;;;;;6206071;23;20044;-72
2021/12/27 03:55:27;;;;;;;0.90;0.70;;;13.80;99.90;;;;;;6179677;23;20023;-71
2021/12/27 03:58:05;;;;;;;1.05;0.60;;;13.90;99.90;;;;;;6180357;23;20444;-72
2021/12/27 04:00:46;;;;;;;0.60;0.60;;;13.90;99.90;;;;;;6206557;23;20020;-72
2021/12/27 04:03:13;;;;;;;2.58;0.90;;;13.80;99.90;;;;;;6206612;23;20021;-71
2021/12/27 04:05:39;;;;;;;1.23;0.63;;;13.70;99.90;;;;;;6181224;23;20017;-71
2021/12/27 04:08:09;;;;;;;1.15;0.68;;;13.70;99.90;;;;;;6205363;23;20027;-72
2021/12/27 04:10:40;;;;;;;1.30;0.90;;;13.60;99.90;;;;;;6181960;23;20016;-71
2021/12/27 04:13:10;;;;;;;0.82;0.70;;;13.60;99.90;;;;;;6159894;23;20027;-70
2021/12/27 04:15:37;;;;;;;2.50;0.90;;;13.50;99.90;;;;;;6182292;23;20024;-72
2021/12/27 04:18:04;;;;;;;1.77;0.75;;;13.50;99.90;;;;;;6181280;23;20013;-71
2021/12/27 04:20:30;;;;;;;1.23;0.80;;;13.50;99.90;;;;;;6209356;23;20036;-71
2021/12/27 04:22:56;;;;;;;0.85;0.60;;;13.50;99.90;;;;;;6209964;23;20047;-72
2021/12/27 04:25:24;;;;;;;0.88;0.70;;;13.50;99.90;;;;;;6181323;23;20164;-72
2021/12/27 04:27:50;;;;;;;1.35;0.65;;;13.40;99.90;;;;;;6209515;23;20116;-72
2021/12/27 04:30:19;;;;;;;0.55;0.55;;;13.50;99.90;;;;;;6207440;23;20470;-72
2021/12/27 04:32:46;;;;;;;0.73;0.63;;;13.50;99.90;;;;;;6182644;23;20032;-71
2021/12/27 04:35:12;;;;;;;1.00;0.70;;;13.60;99.90;;;;;;6180675;23;20352;-73
2021/12/27 04:37:41;;;;;;;0.80;0.68;;;13.60;99.90;;;;;;6208067;23;20460;-72
2021/12/27 04:40:11;;;;;;;2.13;0.60;;;13.60;99.90;;;;;;6208099;23;20074;-72
2021/12/27 04:42:39;;;;;;;1.05;0.80;;;13.70;99.90;;;;;;6208082;23;20441;-72
2021/12/27 04:45:07;;;;;;;2.05;0.70;;;13.70;99.90;;;;;;6191562;23;20013;-71
2021/12/27 04:47:32;;;;;;;0.80;0.60;;;13.70;99.90;;;;;;6182832;23;20112;-71
2021/12/27 04:49:58;;;;;;;0.73;0.73;;;13.60;99.90;;;;;;6181313;23;20063;-71
2021/12/27 04:52:24;;;;;;;1.35;0.80;;;13.70;99.90;;;;;;6180592;23;20099;-71
2021/12/27 04:54:50;;;;;;;0.70;0.70;;;13.60;99.90;;;;;;6209265;23;20091;-72
2021/12/27 04:57:16;;;;;;;2.15;0.70;;;13.80;99.90;;;;;;6179839;23;20106;-72
2021/12/27 04:59:43;;;;;;;1.00;0.70;;;13.70;99.90;;;;;;6182732;23;20063;-71
2021/12/27 05:02:10;;;;;;;0.60;0.60;;;13.50;99.90;;;;;;6206401;23;20027;-71
2021/12/27 05:04:36;;;;;;;1.52;0.82;;;13.60;99.90;;;;;;6208166;23;20615;-70
2021/12/27 05:07:02;;;;;;;1.05;0.75;;;13.60;99.90;;;;;;6186669;23;20028;-71
2021/12/27 05:09:28;;;;;;;1.42;0.73;;;13.60;99.90;;;;;;6180886;23;20337;-72
2021/12/27 05:11:54;;;;;;;0.40;0.40;;;13.60;99.90;;;;;;6208849;23;20008;-71
2021/12/27 05:14:20;;;;;;;1.10;0.80;;;13.70;99.90;;;;;;6181251;23;20020;-71
2021/12/27 05:16:47;;;;;;;0.65;0.55;;;13.60;99.90;;;;;;6208632;23;20024;-71
2021/12/27 05:19:15;;;;;;;0.90;0.60;;;13.60;99.90;;;;;;6180306;23;20035;-71
2021/12/27 05:21:41;;;;;;;0.75;0.63;;;13.60;99.90;;;;;;6181597;23;20013;-71
2021/12/27 05:24:07;;;;;;;0.80;0.63;;;13.60;99.90;;;;;;6179231;23;20067;-72
2021/12/27 05:26:33;;;;;;;0.47;0.47;;;13.70;99.90;;;;;;6209027;23;20012;-72
2021/12/27 05:28:59;;;;;;;0.82;0.55;;;13.60;99.90;;;;;;6207491;23;20016;-71
2021/12/27 05:31:25;;;;;;;0.70;0.60;;;13.70;99.90;;;;;;6206937;23;20566;-72
2021/12/27 05:33:51;;;;;;;0.63;0.50;;;13.80;99.90;;;;;;6181468;23;20020;-72
2021/12/27 05:36:18;;;;;;;1.48;0.50;;;13.70;99.90;;;;;;6180010;23;20031;-71
2021/12/27 05:38:43;;;;;;;0.98;0.73;;;13.60;99.90;;;;;;6208854;23;20507;-73
2021/12/27 05:41:10;;;;;;;1.05;0.88;;;13.70;99.90;;;;;;6179530;23;20016;-71
2021/12/27 05:43:36;;;;;;;3.72;0.85;;;13.60;99.90;;;;;;6207545;23;20024;-72
2021/12/27 05:46:02;;;;;;;2.25;0.70;;;13.60;99.90;;;;;;6207666;23;20657;-72
2021/12/27 05:48:28;;;;;;;1.65;0.70;;;13.70;99.90;;;;;;6208481;23;20028;-72
2021/12/27 05:50:55;;;;;;;1.15;0.70;;;13.60;99.90;;;;;;6207284;23;20173;-73
2021/12/27 05:53:21;;;;;;;0.60;0.60;;;13.60;99.90;;;;;;6206430;23;20020;-71
2021/12/27 05:55:47;;;;;;;0.43;0.43;;;13.60;99.90;;;;;;6180716;23;20016;-72
2021/12/27 05:58:13;;;;;;;0.90;0.70;;;13.60;99.90;;;;;;6179130;23;20016;-73
2021/12/27 06:00:39;;;;;;;2.08;0.70;;;13.50;99.90;;;;;;6180990;23;20015;-72
2021/12/27 06:03:05;;;;;;;1.10;0.60;;;13.50;99.90;;;;;;6181742;23;20012;-71
2021/12/27 06:05:31;;;;;;;0.75;0.70;;;13.40;99.90;;;;;;6181508;23;20385;-72
2021/12/27 06:07:59;;;;;;;0.50;0.50;;;13.40;99.90;;;;;;6208242;23;20023;-72
2021/12/27 06:10:24;;;;;;;2.53;0.82;;;13.40;99.90;;;;;;6181569;23;20012;-72
2021/12/27 06:12:50;;;;;;;2.83;0.90;;;13.30;99.90;;;;;;6180587;23;20066;-73
2021/12/27 06:15:16;;;;;;;0.93;0.60;;;13.30;99.90;;;;;;6191427;23;20020;-71
2021/12/27 06:17:42;;;;;;;1.55;0.70;;;13.40;99.90;;;;;;6181150;23;20029;-72
2021/12/27 06:20:16;;;;;;;0.80;0.73;;;13.30;99.90;;;;;;6180392;23;20025;-72
2021/12/27 06:22:56;;;;;;;1.60;0.90;;;13.30;99.90;;;;;;6207652;23;20017;-73
2021/12/27 06:25:22;;;;;;;1.20;0.70;;;13.30;99.90;;;;;;6205994;23;20108;-72
2021/12/27 06:27:51;;;;;;;0.90;0.80;;;13.20;99.90;;;;;;6179618;23;20044;-71
2021/12/27 06:30:18;;;;;;;1.75;0.90;;;13.20;99.90;;;;;;6180007;23;20021;-71
2021/12/27 06:32:45;;;;;;;1.20;0.90;;;13.20;99.90;;;;;;6180608;23;20088;-72
2021/12/27 06:35:13;;;;;;;0.82;0.80;;;13.20;99.90;;;;;;6206863;23;20013;-71
2021/12/27 06:37:41;;;;;;;1.33;0.90;;;13.20;99.90;;;;;;6209449;23;20021;-72
2021/12/27 06:40:09;;;;;;;1.70;1.08;;;13.20;99.90;;;;;;6179407;23;20155;-72
2021/12/27 06:42:35;;;;;;;1.05;0.77;;;13.10;99.90;;;;;;6208060;23;20144;-71
2021/12/27 06:45:01;;;;;;;0.65;0.60;;;13.10;99.90;;;;;;6206814;23;20055;-71
2021/12/27 06:47:27;;;;;;;3.20;1.00;;;13.20;99.90;;;;;;6180182;23;20019;-73
2021/12/27 06:49:53;;;;;;;1.15;0.90;;;13.10;99.90;;;;;;6209299;23;20428;-71
2021/12/27 06:52:19;;;;;;;1.23;0.90;;;13.10;99.90;;;;;;6179830;23;20027;-71
2021/12/27 06:54:45;;;;;;;1.35;0.98;;;13.10;99.90;;;;;;6181569;23;20020;-72
2021/12/27 06:57:11;;;;;;;0.80;0.70;;;13.10;99.90;;;;;;6208231;23;20055;-71
2021/12/27 06:59:37;;;;;;;1.98;1.17;;;13.10;99.90;;;;;;6180826;23;20017;-72
2021/12/27 07:02:04;;;;;;;1.40;1.10;;;13.10;99.90;;;;;;6179329;23;20032;-73
2021/12/27 07:04:31;;;;;;;1.10;0.90;;;13.00;99.90;;;;;;6181788;23;20027;-72
2021/12/27 07:06:57;;;;;;;4.55;1.20;;;13.10;99.90;;;;;;6207765;23;20021;-72
2021/12/27 07:09:24;;;;;;;1.77;1.00;;;13.10;99.90;;;;;;6180612;23;20020;-72
2021/12/27 07:11:51;;;;;;;0.80;0.65;;;13.00;99.90;;;;;;6207886;23;20013;-72
2021/12/27 07:14:17;;;;;;;1.58;1.02;;;13.10;99.90;;;;;;6165351;23;20441;-72
2021/12/27 07:16:43;;;;;;;1.00;0.82;;;13.10;99.90;;;;;;6182810;23;20067;-73
2021/12/27 07:19:09;;;;;;;1.45;0.98;;;13.20;99.90;;;;;;6207068;23;20076;-72
2021/12/27 07:21:35;;;;;;;1.65;0.85;;;13.20;99.90;;;;;;6181995;23;20035;-72
2021/12/27 07:24:01;;;;;;;1.20;0.70;;;13.40;99.90;;;;;;6208600;23;20024;-72
2021/12/27 07:26:28;;;;;;;1.70;0.70;;;13.50;99.90;;;;;;6180517;23;20455;-72
2021/12/27 07:28:55;;;;;;;0.88;0.70;;;13.60;99.90;;;;;;6181689;23;20448;-72
2021/12/27 07:31:22;;;;;;;4.88;0.75;;;13.60;99.90;;;;;;6180106;23;20070;-72
2021/12/27 07:33:48;;;;;;;1.80;0.70;;;13.60;99.90;;;;;;6179833;23;20012;-72
2021/12/27 07:36:15;;;;;;;1.20;0.70;;;13.60;99.90;;;;;;6180740;23;20020;-73
2021/12/27 07:38:42;;;;;;;1.67;0.77;;;13.70;99.90;;;;;;6180863;23;20036;-73
2021/12/27 07:41:09;;;;;;;1.05;0.60;;;13.70;99.90;;;;;;6206450;23;20016;-73
2021/12/27 07:43:35;;;;;;;1.33;0.55;;;13.80;99.90;;;;;;6208535;23;20005;-72
2021/12/27 07:46:02;;;;;;;2.08;0.80;;;13.90;99.90;;;;;;6168782;23;20047;-73
2021/12/27 07:48:29;;;;;;;1.17;0.68;;;13.90;99.90;;;;;;6182599;23;20024;-71
2021/12/27 07:50:55;;;;;;;1.10;0.63;;;14.00;99.90;;;;;;6213386;23;20012;-74
2021/12/27 07:53:22;;;;;;;1.40;0.80;;;14.10;99.90;;;;;;6182459;23;20016;-72
2021/12/27 07:55:48;;;;;;;1.65;0.80;;;14.10;99.90;;;;;;6163958;23;20027;-74
2021/12/27 07:58:14;;;;;;;2.03;0.90;;;14.00;99.90;;;;;;6185766;23;20483;-73
2021/12/27 08:00:41;;;;;;;1.90;0.70;;;14.00;99.90;;;;;;6209359;23;20031;-72
2021/12/27 08:03:08;;;;;;;1.50;0.80;;;14.00;99.90;;;;;;6162063;23;20040;-72
2021/12/27 08:05:34;;;;;;;2.30;0.90;;;13.90;99.90;;;;;;6182688;23;20005;-72
2021/12/27 08:08:00;;;;;;;2.20;0.90;;;13.90;99.90;;;;;;6209520;23;20079;-72
2021/12/27 08:10:28;;;;;;;2.60;0.77;;;13.90;99.90;;;;;;6213320;23;20028;-74
2021/12/27 08:12:55;;;;;;;3.15;0.80;;;14.00;99.90;;;;;;6184734;23;20023;-73
2021/12/27 08:15:21;;;;;;;2.35;1.30;;;14.00;99.90;;;;;;6183964;23;20036;-73
2021/12/27 08:17:48;;;;;;;5.15;3.50;;;14.20;99.90;;;;;;6185129;23;20036;-73
2021/12/27 08:20:14;;;;;;;1.95;1.30;;;15.30;99.90;;;;;;6208762;23;20028;-73
2021/12/27 08:22:40;;;;;;;2.50;2.30;;;15.10;99.90;;;;;;6210539;23;20035;-73
2021/12/27 08:25:07;;;;;;;4.03;3.58;;;15.60;99.90;;;;;;6206856;23;20460;-75
2021/12/27 08:27:35;;;;;;;2.53;2.42;;;16.30;99.90;;;;;;6183741;23;20016;-73
2021/12/27 08:30:04;;;;;;;1.50;1.40;;;16.50;99.90;;;;;;6160234;23;20020;-72
2021/12/27 08:32:33;;;;;;;1.58;1.15;;;17.20;99.90;;;;;;6207702;23;20042;-75
2021/12/27 08:35:01;;;;;;;2.42;0.90;;;17.30;99.90;;;;;;6182814;23;20023;-73
2021/12/27 08:37:31;;;;;;;1.67;1.00;;;17.30;99.90;;;;;;6183501;23;20451;-72
2021/12/27 08:39:58;;;;;;;2.58;0.93;;;17.00;99.90;;;;;;6182237;23;20560;-72
2021/12/27 08:42:25;;;;;;;1.23;0.98;;;17.30;99.90;;;;;;6184451;23;20016;-73
2021/12/27 08:44:52;;;;;;;2.08;0.82;;;17.30;99.90;;;;;;6182092;23;20410;-72
2021/12/27 08:47:19;;;;;;;1.00;0.90;;;17.20;99.90;;;;;;6177534;23;20136;-72
2021/12/27 08:49:46;;;;;;;3.63;1.00;;;17.60;99.90;;;;;;6178734;23;20685;-72
2021/12/27 08:52:13;;;;;;;0.90;0.75;;;16.80;99.90;;;;;;6173845;23;20024;-72
2021/12/27 08:54:39;;;;;;;1.55;0.68;;;16.60;99.90;;;;;;6205068;23;20084;-73
2021/12/27 08:57:09;;;;;;;1.05;0.65;;;16.30;99.90;;;;;;6173056;23;20035;-75
2021/12/27 08:59:36;;;;;;;3.03;0.73;;;16.20;99.90;;;;;;6175975;23;20070;-74
2021/12/27 09:02:04;;;;;;;1.40;0.90;;;16.10;99.90;;;;;;6198972;23;20087;-72
2021/12/27 09:04:31;;;;;;;1.17;0.70;;;16.10;99.90;;;;;;6177740;23;20070;-72
2021/12/27 09:06:57;;;;;;;2.22;1.02;;;15.90;99.90;;;;;;6172172;23;20021;-73
2021/12/27 09:09:25;;;;;;;1.50;0.70;;;15.90;99.90;;;;;;6195700;23;20016;-73
2021/12/27 09:11:52;;;;;;;1.85;0.70;;;15.80;99.90;;;;;;6151636;23;20074;-73
2021/12/27 09:14:18;;;;;;;6.75;1.30;;;16.00;99.90;;;;;;6203218;23;20051;-72
2021/12/27 09:16:45;;;;;;;4.57;0.90;;;16.10;99.90;;;;;;6201858;23;20115;-72
2021/12/27 09:19:12;;;;;;;8.40;1.45;;;16.30;99.90;;;;;;6174825;23;20104;-73
2021/12/27 09:21:38;;;;;;;2.88;0.60;;;16.20;99.90;;;;;;6174542;23;20012;-72
2021/12/27 09:24:05;;;;;;;3.35;1.00;;;16.40;99.90;;;;;;6201075;23;20031;-72
2021/12/27 09:26:31;;;;;;;2.53;1.17;;;16.60;99.90;;;;;;6198154;23;20017;-74
2021/12/27 09:28:58;;;;;;;2.35;0.88;;;16.90;99.90;;;;;;6204545;23;20021;-74
2021/12/27 09:31:24;;;;;;;1.23;0.75;;;17.40;99.90;;;;;;6202536;23;20027;-73
2021/12/27 09:33:50;;;;;;;6.18;0.75;;;17.40;99.90;;;;;;6200028;23;20036;-74
2021/12/27 09:36:16;;;;;;;1.40;0.77;;;17.60;99.90;;;;;;6174505;23;20055;-73
2021/12/27 09:38:43;;;;;;;5.13;1.48;;;17.70;99.90;;;;;;6174973;23;20023;-72
2021/12/27 09:41:09;;;;;;;0.80;0.80;;;17.90;99.90;;;;;;6169438;23;20025;-73
2021/12/27 09:43:37;;;;;;;6.10;1.35;;;17.60;99.90;;;;;;6201115;23;20012;-73
2021/12/27 09:46:05;;;;;;;2.20;0.85;;;17.70;99.90;;;;;;6201296;23;20024;-72
2021/12/27 09:48:30;;;;;;;4.00;0.80;;;18.00;99.90;;;;;;6172124;23;20020;-73
2021/12/27 09:50:58;;;;;;;2.60;0.70;;;18.00;99.90;;;;;;6174514;23;20039;-73
2021/12/27 09:53:24;;;;;;;1.75;0.70;;;18.00;99.90;;;;;;6198952;23;20016;-73
2021/12/27 09:55:51;;;;;;;2.95;0.70;;;18.10;99.90;;;;;;6170852;23;20353;-73
2021/12/27 09:58:17;;;;;;;2.88;0.93;;;18.00;99.90;;;;;;6196750;23;20020;-73
2021/12/27 10:00:43;;;;;;;2.78;0.88;;;18.00;99.90;;;;;;6199791;23;20012;-72
2021/12/27 10:03:11;;;;;;;1.13;0.70;;;18.00;99.90;;;;;;6196770;23;20020;-73
2021/12/27 10:05:37;;;;;;;2.13;0.60;;;18.30;99.90;;;;;;6174333;23;20032;-74
2021/12/27 10:08:04;;;;;;;0.60;0.57;;;18.60;99.90;;;;;;6198033;23;20017;-72
2021/12/27 10:10:36;;;;;;;2.63;0.80;;;18.60;99.90;;;;;;6199341;23;20321;-72
2021/12/27 10:13:11;;;;;;;1.15;0.70;;;18.70;99.90;;;;;;6196934;23;20103;-73
2021/12/27 10:15:41;;;;;;;0.70;0.60;;;18.80;99.90;;;;;;6173953;23;20016;-72
2021/12/27 10:18:16;;;;;;;1.13;0.60;;;18.90;99.90;;;;;;6198440;23;20107;-72
2021/12/27 10:20:43;;;;;;;1.15;0.50;;;19.00;99.90;;;;;;6199648;23;20028;-71
2021/12/27 10:23:13;;;;;;;1.00;0.60;;;19.20;99.90;;;;;;6169729;23;20801;-72
2021/12/27 10:25:39;;;;;;;3.00;0.90;;;19.30;99.90;;;;;;6172983;23;20021;-73
2021/12/27 10:28:06;;;;;;;1.10;0.52;;;19.20;99.90;;;;;;6174285;23;20020;-73
2021/12/27 10:30:35;;;;;;;0.80;0.63;;;19.20;99.90;;;;;;6200354;23;20499;-74
2021/12/27 10:33:24;;;;;;;4.60;0.60;;;19.60;99.90;;;;;;6207464;23;20047;-73
2021/12/27 10:35:55;;;;;;;2.80;0.75;;;19.90;99.90;;;;;;6179869;23;20020;-73
2021/12/27 10:38:36;;;;;;;2.05;0.73;;;19.70;99.90;;;;;;6180291;23;20540;-72
2021/12/27 10:41:09;;;;;;;1.48;0.60;;;20.10;99.90;;;;;;6205345;23;20017;-73
2021/12/27 10:43:56;;;;;;;1.20;0.80;;;20.10;99.90;;;;;;6182271;23;20008;-72
2021/12/27 10:46:22;;;;;;;1.00;0.52;;;20.30;99.90;;;;;;6180531;23;21285;-72
2021/12/27 10:48:55;;;;;;;4.47;0.80;;;20.70;99.90;;;;;;6181333;23;20036;-72
2021/12/27 10:51:21;;;;;;;1.88;0.93;;;20.80;99.90;;;;;;6206750;23;20412;-73
2021/12/27 10:53:59;;;;;;;2.17;0.88;;;20.80;99.90;;;;;;6208386;23;20046;-72
2021/12/27 10:56:48;;;;;;;2.97;0.75;;;21.50;99.70;;;;;;6206951;23;20096;-73
2021/12/27 10:59:20;;;;;;;2.45;1.75;;;21.50;99.40;;;;;;6182628;23;20023;-73
2021/12/27 11:01:50;;;;;;;1.10;0.68;;;22.50;98.80;;;;;;6181291;23;20063;-74
2021/12/27 11:04:19;;;;;;;2.83;0.90;;;22.00;99.00;;;;;;6180120;23;20086;-72
2021/12/27 11:06:48;;;;;;;3.28;0.90;;;22.20;98.60;;;;;;6208270;23;20340;-72
2021/12/27 11:09:16;;;;;;;6.78;1.00;;;22.50;98.60;;;;;;6207489;23;20013;-74
2021/12/27 11:11:42;;;;;;;2.50;0.77;;;21.70;98.80;;;;;;6207962;23;20531;-73
2021/12/27 11:14:10;;;;;;;1.88;0.82;;;20.90;98.90;;;;;;6205554;23;20436;-72
2021/12/27 11:16:36;;;;;;;1.17;0.80;;;21.00;99.20;;;;;;6206993;23;20048;-73
2021/12/27 11:19:02;;;;;;;2.40;0.70;;;20.90;99.30;;;;;;6206779;23;20020;-73
2021/12/27 11:21:33;;;;;;;4.60;0.90;;;21.20;99.30;;;;;;6207088;23;20021;-72
2021/12/27 11:24:01;;;;;;;1.25;0.77;;;22.10;98.90;;;;;;6193121;23;20013;-73
2021/12/27 11:26:32;;;;;;;1.48;0.70;;;22.80;97.60;;;;;;6178830;23;20013;-73
2021/12/27 11:29:21;;;;;;;2.10;0.82;;;22.80;97.40;;;;;;6208410;23;20043;-74
2021/12/27 11:32:08;;;;;;;2.88;0.98;;;23.30;97.10;;;;;;6207241;23;20016;-74
2021/12/27 11:34:55;;;;;;;4.55;0.88;;;23.40;96.80;;;;;;6207314;23;20009;-74
2021/12/27 11:37:33;;;;;;;2.95;0.90;;;24.70;96.00;;;;;;6206375;23;20328;-73
2021/12/27 11:40:08;;;;;;;3.13;1.10;;;24.90;95.50;;;;;;6180366;23;20080;-73
2021/12/27 11:42:57;;;;;;;1.70;1.00;;;25.00;95.10;;;;;;6178591;23;20017;-72
2021/12/27 11:45:50;;;;;;;3.25;0.75;;;24.10;94.50;;;;;;6177393;23;20021;-74
2021/12/27 11:48:18;;;;;;;3.67;0.90;;;22.40;95.60;;;;;;6178987;23;20100;-72
2021/12/27 11:50:58;;;;;;;3.47;1.15;;;23.20;95.60;;;;;;6156182;23;20017;-73
2021/12/27 11:53:32;;;;;;;3.20;1.10;;;22.60;95.80;;;;;;6204495;23;20134;-73
2021/12/27 11:55:59;;;;;;;3.13;0.70;;;23.50;95.30;;;;;;6207023;23;20051;-73
2021/12/27 11:58:37;;;;;;;2.20;0.77;;;22.60;95.20;;;;;;6207067;23;20098;-74
2021/12/27 12:01:07;;;;;;;2.33;0.98;;;23.40;95.20;;;;;;6205711;23;20012;-72
2021/12/27 12:03:42;;;;;;;2.05;0.90;;;23.20;95.00;;;;;;6181543;23;20009;-73
2021/12/27 12:06:41;;;;;;;4.13;0.82;;;23.20;94.90;;;;;;6154734;23;20345;-74
2021/12/27 12:09:12;;;;;;;3.38;0.90;;;23.00;95.00;;;;;;6179360;23;20345;-73
2021/12/27 12:11:38;;;;;;;3.03;0.80;;;22.40;95.40;;;;;;6179021;23;20068;-74
2021/12/27 12:14:34;;;;;;;3.58;0.68;;;21.80;95.70;;;;;;6178766;23;20012;-74
2021/12/27 12:17:03;;;;;;;2.15;0.85;;;21.40;95.90;;;;;;6204676;23;20074;-76
2021/12/27 12:19:47;;;;;;;3.08;0.93;;;21.20;95.80;;;;;;6175946;23;20021;-74
2021/12/27 12:22:38;;;;;;;2.92;0.80;;;21.30;96.20;;;;;;6206401;23;20102;-76
2021/12/27 12:25:18;;;;;;;4.68;0.98;;;20.90;95.90;;;;;;6179346;23;20136;-73
2021/12/27 12:27:50;;;;;;;4.07;0.80;;;20.60;96.30;;;;;;6207471;23;20472;-73
2021/12/27 12:30:16;;;;;;;2.75;0.80;;;20.40;96.40;;;;;;6153344;23;20468;-74
2021/12/27 12:32:57;;;;;;;37.85;3.78;;;20.60;96.50;;;;;;6175146;23;20032;-75
2021/12/27 12:35:40;;;;;;;3.22;0.80;;;20.80;96.00;;;;;;6170841;23;20458;-74
2021/12/27 12:38:12;;;;;;;3.25;1.33;;;21.10;95.80;;;;;;6198211;23;20025;-73
2021/12/27 12:40:39;;;;;;;3.45;1.15;;;20.80;95.90;;;;;;6175592;23;20423;-72
2021/12/27 12:43:06;;;;;;;4.55;1.02;;;20.90;95.80;;;;;;6205091;23;20048;-74
2021/12/27 12:45:33;;;;;;;2.47;1.00;;;19.80;96.30;;;;;;6209143;23;20074;-75
2021/12/27 12:48:00;;;;;;;7.60;1.23;;;19.80;96.40;;;;;;6207897;23;20313;-74
2021/12/27 12:50:26;;;;;;;2.95;0.90;;;19.70;96.80;;;;;;6170748;23;20017;-73
2021/12/27 12:52:58;;;;;;;8.25;1.38;;;19.40;96.80;;;;;;6174843;23;20391;-75
2021/12/27 12:55:31;;;;;;;5.07;1.17;;;19.40;97.10;;;;;;6171451;23;20087;-76
2021/12/27 12:57:58;;;;;;;3.45;0.93;;;20.10;96.90;;;;;;6197945;23;20028;-75